Time;durP1;ratioP1;P1;durP2;ratioP2;P2;SDS_P1;SDS_P2;PMS_P1;PMS_P2;Temp;Humidity;BMP_temperature;BMP_pressure;BME280_temperature;BME280_humidity;BME280_pressure;Samples;Min_cycle;Max_cycle;Signal;HPM_P1;HPM_P2
2021/04/12 00:02:33;;;;;;;1.43;1.13;;;16.10;48.20;;;;;;5121268;28;20473;-42
2021/04/12 00:05:14;;;;;;;1.30;1.20;;;16.00;48.30;;;;;;5126085;28;20531;-42
2021/04/12 00:07:54;;;;;;;1.10;1.10;;;16.00;47.30;;;;;;5126116;28;20450;-42
2021/04/12 00:10:31;;;;;;;1.57;1.23;;;16.10;48.10;;;;;;5126459;28;20447;-41
2021/04/12 00:13:08;;;;;;;1.80;1.20;;;16.10;48.70;;;;;;5124378;28;20523;-42
2021/04/12 00:15:44;;;;;;;1.30;1.20;;;16.10;48.90;;;;;;5122079;28;20473;-40
2021/04/12 00:18:20;;;;;;;1.30;1.20;;;16.00;48.50;;;;;;5125258;28;20442;-40
2021/04/12 00:20:56;;;;;;;2.73;1.37;;;16.10;48.10;;;;;;5123629;28;20442;-41
2021/04/12 00:23:33;;;;;;;2.77;1.30;;;16.00;48.00;;;;;;5123488;28;20539;-40
2021/04/12 00:26:09;;;;;;;1.57;1.40;;;15.80;48.20;;;;;;5123281;28;20442;-40
2021/04/12 00:28:46;;;;;;;2.03;1.83;;;15.70;48.60;;;;;;5124146;28;20533;-38
2021/04/12 00:31:21;;;;;;;1.27;1.23;;;15.70;48.40;;;;;;5124978;28;20430;-41
2021/04/12 00:33:55;;;;;;;2.50;1.80;;;15.50;48.10;;;;;;5123397;28;20513;-42
2021/04/12 00:36:29;;;;;;;4.90;4.50;;;15.50;49.10;;;;;;5124986;28;20529;-41
2021/04/12 00:39:03;;;;;;;4.90;2.30;;;15.60;49.20;;;;;;5124811;28;20455;-39
2021/04/12 00:42:12;;;;;;;2.80;1.80;;;15.50;48.50;;;;;;5123249;28;20484;-42
2021/04/12 00:45:08;;;;;;;5.70;1.90;;;15.40;48.70;;;;;;5017944;28;20554;-40
2021/04/12 00:47:49;;;;;;;2.97;2.20;;;15.10;48.30;;;;;;5010873;28;20458;-40
2021/04/12 00:50:32;;;;;;;1.60;1.50;;;15.10;48.60;;;;;;5018317;28;20439;-41
2021/04/12 00:53:47;;;;;;;1.53;1.23;;;15.00;48.50;;;;;;5021661;28;20801;-39
2021/04/12 00:56:23;;;;;;;1.60;1.50;;;14.80;48.60;;;;;;5021877;28;20458;-41
2021/04/12 00:59:00;;;;;;;5.10;1.70;;;14.70;48.90;;;;;;5021932;28;20534;-41
2021/04/12 01:01:46;;;;;;;3.63;1.97;;;14.70;49.20;;;;;;5021290;28;20544;-41
2021/04/12 01:04:37;;;;;;;2.10;1.63;;;14.70;49.90;;;;;;5022489;28;20454;-41
2021/04/12 01:07:34;;;;;;;1.87;1.77;;;14.70;49.30;;;;;;5021390;28;20450;-41
2021/04/12 01:10:57;;;;;;;1.80;1.67;;;14.70;49.40;;;;;;5021219;28;20547;-41
2021/04/12 01:13:58;;;;;;;2.00;1.57;;;14.60;49.20;;;;;;4982143;28;20464;-42
2021/04/12 01:16:46;;;;;;;3.93;1.70;;;14.50;49.50;;;;;;4982531;28;20515;-40
2021/04/12 01:20:08;;;;;;;1.97;1.80;;;14.50;49.10;;;;;;5027210;28;20440;-41
2021/04/12 01:23:23;;;;;;;2.63;2.17;;;14.40;49.90;;;;;;4976552;28;20517;-42
2021/04/12 01:26:51;;;;;;;5.07;2.53;;;14.30;50.60;;;;;;4970779;28;20467;-41
2021/04/12 01:30:36;;;;;;;3.07;2.77;;;14.20;50.10;;;;;;4982467;28;20451;-41
2021/04/12 01:33:52;;;;;;;1.80;1.70;;;14.20;50.50;;;;;;4981020;28;20940;-41
2021/04/12 01:36:42;;;;;;;2.37;2.13;;;14.10;51.40;;;;;;4981971;28;20780;-41
2021/04/12 01:39:40;;;;;;;3.20;2.37;;;14.10;50.70;;;;;;4983024;28;20535;-41
2021/04/12 01:42:32;;;;;;;2.10;1.90;;;14.00;51.50;;;;;;4981614;28;21003;-40
2021/04/12 01:48:23;;;;;;;2.97;1.87;;;13.90;52.00;;;;;;5040214;28;20584;-42
2021/04/12 01:51:25;;;;;;;4.23;2.00;;;13.80;51.80;;;;;;5026384;28;20444;-40
2021/04/12 01:54:26;;;;;;;3.03;2.60;;;13.70;51.80;;;;;;5000370;28;20465;-43
2021/04/12 01:57:15;;;;;;;2.57;1.80;;;13.60;51.30;;;;;;5005695;28;20538;-43
2021/04/12 02:00:02;;;;;;;2.83;1.87;;;13.60;51.00;;;;;;5020915;28;20450;-42
2021/04/12 02:02:42;;;;;;;4.07;2.20;;;13.50;52.10;;;;;;5020271;28;20547;-42
2021/04/12 02:05:36;;;;;;;2.10;1.90;;;13.50;52.20;;;;;;5021261;28;20558;-41
2021/04/12 02:08:20;;;;;;;2.00;1.70;;;13.40;52.10;;;;;;5020119;28;20930;-41
2021/04/12 02:11:12;;;;;;;1.80;1.47;;;13.30;51.90;;;;;;5020028;28;20496;-42
2021/04/12 02:14:10;;;;;;;2.90;1.80;;;13.20;52.90;;;;;;5020234;28;20456;-40
2021/04/12 02:16:54;;;;;;;2.20;1.80;;;13.10;52.00;;;;;;5009491;28;20449;-41
2021/04/12 02:19:54;;;;;;;2.80;2.07;;;13.10;52.60;;;;;;5021088;28;20453;-42
2021/04/12 02:22:46;;;;;;;2.77;1.60;;;13.00;52.70;;;;;;5020309;28;20515;-40
2021/04/12 02:25:26;;;;;;;1.97;1.43;;;12.90;53.20;;;;;;5020808;28;20454;-42
2021/04/12 02:28:06;;;;;;;2.43;1.63;;;12.90;53.30;;;;;;5071462;28;20943;-42
2021/04/12 02:30:47;;;;;;;4.03;1.80;;;12.80;53.60;;;;;;5124171;28;20444;-42
2021/04/12 02:33:27;;;;;;;2.50;1.70;;;12.70;54.10;;;;;;5122999;28;20917;-41
2021/04/12 02:36:09;;;;;;;2.10;1.90;;;12.60;54.50;;;;;;5123857;28;20503;-41
2021/04/12 02:38:51;;;;;;;3.97;1.93;;;12.60;55.00;;;;;;5119733;28;20449;-42
2021/04/12 02:41:46;;;;;;;2.53;1.90;;;12.50;54.90;;;;;;5122532;28;20526;-40
2021/04/12 02:44:47;;;;;;;1.77;1.67;;;12.40;55.00;;;;;;5120729;28;20453;-41
2021/04/12 02:47:35;;;;;;;2.63;1.83;;;12.30;54.60;;;;;;5081747;28;20452;-41
2021/04/12 02:50:20;;;;;;;3.00;1.43;;;12.20;54.10;;;;;;5123498;28;20456;-41
2021/04/12 02:53:05;;;;;;;2.23;2.03;;;12.20;54.10;;;;;;5122798;28;20452;-42
2021/04/12 02:56:06;;;;;;;1.97;1.77;;;12.10;54.70;;;;;;5121335;28;20517;-41
2021/04/12 02:59:05;;;;;;;3.30;1.70;;;12.00;54.00;;;;;;5099041;28;20448;-41
2021/04/12 03:02:20;;;;;;;3.40;1.87;;;11.90;54.70;;;;;;5119600;28;20492;-40
2021/04/12 03:05:01;;;;;;;3.40;1.80;;;11.90;54.30;;;;;;5044465;28;20877;-40
2021/04/12 03:08:18;;;;;;;1.80;1.70;;;11.80;53.80;;;;;;5044417;28;20449;-39
2021/04/12 03:11:15;;;;;;;2.37;1.63;;;11.70;55.10;;;;;;4979572;28;20485;-40
2021/04/12 03:14:11;;;;;;;3.90;2.00;;;11.60;55.60;;;;;;4977824;28;20451;-40
2021/04/12 03:17:09;;;;;;;1.70;1.60;;;11.60;55.40;;;;;;4985300;28;20929;-39
2021/04/12 03:20:09;;;;;;;2.00;1.90;;;11.50;55.40;;;;;;4985247;28;20461;-40
2021/04/12 03:23:08;;;;;;;2.03;1.80;;;11.50;55.30;;;;;;4984660;28;20484;-38
2021/04/12 03:26:01;;;;;;;2.38;1.50;;;11.40;55.80;;;;;;4984988;28;20461;-41
2021/04/12 03:28:46;;;;;;;2.50;1.43;;;11.30;55.80;;;;;;4983961;28;20219;-40
2021/04/12 03:31:28;;;;;;;1.15;1.13;;;11.30;55.60;;;;;;4983723;28;20492;-38
2021/04/12 03:34:14;;;;;;;2.58;1.90;;;11.20;56.50;;;;;;4984057;28;20233;-41
2021/04/12 03:37:17;;;;;;;2.25;1.55;;;11.10;56.50;;;;;;4984733;28;20202;-41
2021/04/12 03:39:52;;;;;;;1.60;1.45;;;11.10;56.50;;;;;;5000845;28;20273;-41
2021/04/12 03:43:00;;;;;;;1.65;1.48;;;11.10;56.20;;;;;;5041778;28;20229;-40
2021/04/12 03:46:01;;;;;;;1.83;1.67;;;11.00;56.10;;;;;;5115873;28;20225;-40
2021/04/12 03:48:43;;;;;;;1.80;1.70;;;11.00;56.10;;;;;;5120375;28;20237;-41
2021/04/12 03:51:51;;;;;;;1.55;1.45;;;11.00;56.10;;;;;;5125858;28;20197;-40
2021/04/12 03:54:54;;;;;;;3.33;1.40;;;10.90;56.10;;;;;;5085266;28;20245;-39
2021/04/12 03:57:51;;;;;;;2.00;1.50;;;10.90;56.80;;;;;;5035567;28;20237;-40
2021/04/12 04:00:55;;;;;;;2.58;2.10;;;10.80;56.70;;;;;;5027170;28;20209;-39
2021/04/12 04:03:43;;;;;;;2.03;1.60;;;10.70;56.40;;;;;;5041578;28;20629;-41
2021/04/12 04:06:33;;;;;;;2.15;1.55;;;10.70;56.10;;;;;;5042740;28;20199;-38
2021/04/12 04:09:17;;;;;;;1.70;1.55;;;10.60;55.80;;;;;;5042610;28;20259;-39
2021/04/12 04:12:05;;;;;;;2.05;1.45;;;10.60;56.50;;;;;;5041612;28;20689;-41
2021/04/12 04:15:27;;;;;;;1.67;1.58;;;10.50;56.50;;;;;;5042401;28;20204;-40
2021/04/12 04:18:26;;;;;;;1.75;1.65;;;10.50;55.90;;;;;;4983687;28;20232;-39
2021/04/12 04:21:35;;;;;;;2.28;1.70;;;10.40;56.10;;;;;;4983258;28;20355;-40
2021/04/12 04:24:43;;;;;;;2.47;1.45;;;10.40;55.80;;;;;;4982530;28;20206;-41
2021/04/12 04:27:48;;;;;;;1.60;1.50;;;10.40;55.70;;;;;;4981187;28;20305;-38
2021/04/12 04:30:36;;;;;;;1.50;1.40;;;10.30;55.60;;;;;;4980675;28;20690;-41
2021/04/12 04:33:31;;;;;;;1.75;1.52;;;10.20;55.30;;;;;;5011993;28;20212;-41
2021/04/12 04:36:29;;;;;;;1.75;1.63;;;10.20;55.60;;;;;;5034886;28;20245;-41
2021/04/12 04:39:26;;;;;;;2.85;1.63;;;10.20;54.80;;;;;;5042569;28;20335;-41
2021/04/12 04:42:09;;;;;;;1.90;1.75;;;10.20;55.40;;;;;;5041542;28;20596;-41
2021/04/12 04:44:52;;;;;;;1.30;1.20;;;10.10;55.00;;;;;;5042201;28;20253;-41
2021/04/12 04:48:17;;;;;;;2.25;1.25;;;10.10;55.20;;;;;;5045192;28;20203;-40
2021/04/12 04:51:23;;;;;;;1.50;1.40;;;10.00;55.20;;;;;;5023131;28;20216;-41
2021/04/12 04:54:27;;;;;;;1.73;1.45;;;9.90;56.40;;;;;;5022919;28;20710;-40
2021/04/12 04:57:10;;;;;;;2.50;1.70;;;9.90;56.60;;;;;;5017321;28;20322;-38
2021/04/12 05:00:09;;;;;;;1.70;1.60;;;9.80;57.00;;;;;;5016060;28;20205;-39
2021/04/12 05:03:12;;;;;;;2.25;1.95;;;9.80;57.00;;;;;;5018251;28;20626;-40
2021/04/12 05:06:02;;;;;;;2.53;1.63;;;9.80;56.50;;;;;;5027559;28;20296;-39
2021/04/12 05:09:09;;;;;;;2.00;1.73;;;9.70;57.80;;;;;;5028447;28;20633;-39
2021/04/12 05:12:23;;;;;;;3.92;2.13;;;9.60;58.30;;;;;;4947469;29;20321;-37
2021/04/12 05:15:24;;;;;;;2.03;1.88;;;9.60;58.60;;;;;;4911329;29;20233;-38
2021/04/12 05:18:23;;;;;;;1.83;1.73;;;9.50;59.00;;;;;;4951457;29;20244;-40
2021/04/12 05:21:25;;;;;;;3.80;2.20;;;9.40;59.30;;;;;;4937198;29;20256;-41
2021/04/12 05:24:17;;;;;;;2.50;2.30;;;9.40;59.60;;;;;;4960250;28;20202;-40
2021/04/12 05:27:16;;;;;;;2.03;1.92;;;9.40;59.70;;;;;;4957043;28;20208;-40
2021/04/12 05:30:26;;;;;;;1.83;1.70;;;9.40;59.30;;;;;;5010932;28;20750;-39
2021/04/12 05:33:25;;;;;;;2.13;1.90;;;9.30;59.60;;;;;;5021793;28;20257;-41
2021/04/12 05:36:21;;;;;;;2.05;1.95;;;9.30;59.30;;;;;;5016213;28;20203;-39
2021/04/12 05:39:32;;;;;;;2.55;2.00;;;9.20;60.30;;;;;;5014864;28;20302;-40
2021/04/12 05:42:22;;;;;;;2.30;2.10;;;9.20;59.80;;;;;;5019288;28;20233;-39
2021/04/12 05:45:34;;;;;;;1.60;1.50;;;9.20;59.90;;;;;;5026895;28;20225;-38
2021/04/12 05:48:38;;;;;;;2.28;1.90;;;9.10;60.20;;;;;;5067402;28;20197;-40
2021/04/12 05:51:19;;;;;;;2.67;1.60;;;9.00;61.40;;;;;;5083561;28;20273;-38
2021/04/12 05:54:09;;;;;;;2.15;1.95;;;9.00;61.00;;;;;;5083226;28;20243;-40
2021/04/12 05:57:18;;;;;;;2.33;1.50;;;9.00;60.00;;;;;;5081775;28;20296;-40
2021/04/12 06:00:22;;;;;;;2.15;1.85;;;8.90;61.30;;;;;;5083128;28;20652;-39
2021/04/12 06:03:15;;;;;;;1.58;1.48;;;8.90;61.70;;;;;;5057464;28;20610;-39
2021/04/12 06:06:14;;;;;;;1.85;1.75;;;8.80;62.90;;;;;;5082929;28;20212;-35
2021/04/12 06:09:00;;;;;;;2.50;1.60;;;8.80;62.50;;;;;;5082789;28;20197;-39
2021/04/12 06:12:16;;;;;;;2.40;1.70;;;8.80;62.50;;;;;;5082258;28;20231;-39
2021/04/12 06:15:09;;;;;;;1.95;1.50;;;8.80;61.30;;;;;;5012545;28;20567;-41
2021/04/12 06:18:11;;;;;;;3.58;2.03;;;8.70;62.20;;;;;;5019393;28;20213;-40
2021/04/12 06:21:24;;;;;;;1.80;1.70;;;8.70;62.30;;;;;;5020940;28;20206;-39
2021/04/12 06:24:39;;;;;;;1.60;1.50;;;8.60;61.90;;;;;;5005444;28;20772;-41
2021/04/12 06:27:47;;;;;;;2.67;1.45;;;8.60;62.70;;;;;;4979522;28;20201;-41
2021/04/12 06:30:48;;;;;;;1.60;1.50;;;8.60;62.70;;;;;;4981416;28;20208;-38
2021/04/12 06:33:39;;;;;;;1.67;1.58;;;8.50;63.30;;;;;;4976628;28;20208;-40
2021/04/12 06:36:49;;;;;;;2.30;2.10;;;8.40;63.80;;;;;;4972754;28;20212;-39
2021/04/12 06:39:53;;;;;;;1.50;1.30;;;8.40;62.90;;;;;;4985791;28;20203;-40
2021/04/12 06:43:06;;;;;;;1.65;1.55;;;8.40;64.00;;;;;;4966154;28;20232;-40
2021/04/12 06:46:27;;;;;;;2.17;1.85;;;8.30;64.30;;;;;;5011096;28;20253;-37
2021/04/12 06:49:35;;;;;;;2.70;1.90;;;8.20;64.90;;;;;;4928676;29;20217;-38
2021/04/12 06:52:49;;;;;;;2.92;1.73;;;8.20;64.40;;;;;;4942254;29;20224;-39
2021/04/12 06:55:22;;;;;;;1.88;1.77;;;8.20;65.00;;;;;;4942981;29;20678;-40
2021/04/12 06:58:20;;;;;;;1.60;1.50;;;8.10;65.50;;;;;;4941066;29;20220;-40
2021/04/12 07:01:33;;;;;;;1.35;1.25;;;8.10;66.60;;;;;;4966969;28;20209;-39
2021/04/12 07:04:45;;;;;;;1.77;1.67;;;8.10;65.80;;;;;;5020290;28;20234;-40
2021/04/12 07:08:05;;;;;;;1.45;1.35;;;8.00;67.40;;;;;;4893433;29;20217;-39
2021/04/12 07:11:22;;;;;;;1.88;1.77;;;7.90;68.00;;;;;;4833185;29;20214;-40
2021/04/12 07:14:28;;;;;;;1.23;1.13;;;7.80;69.40;;;;;;4854396;29;20227;-41
2021/04/12 07:17:13;;;;;;;2.42;1.48;;;7.80;69.10;;;;;;4806300;29;20226;-39
2021/04/12 07:20:26;;;;;;;1.65;1.55;;;7.80;68.70;;;;;;4866032;29;20219;-39
2021/04/12 07:23:21;;;;;;;1.60;1.50;;;7.80;69.50;;;;;;4855446;29;20236;-38
2021/04/12 07:26:36;;;;;;;1.75;1.65;;;7.80;70.20;;;;;;4867508;29;20239;-35
2021/04/12 07:29:41;;;;;;;1.65;1.55;;;7.60;71.10;;;;;;4867294;29;20204;-38
2021/04/12 07:32:57;;;;;;;1.55;1.40;;;7.60;71.50;;;;;;4866770;29;20236;-40
2021/04/12 07:36:17;;;;;;;1.80;1.70;;;7.60;71.60;;;;;;4862257;29;20577;-39
2021/04/12 07:39:28;;;;;;;1.92;1.83;;;7.50;72.60;;;;;;4794293;30;20217;-39
2021/04/12 07:42:31;;;;;;;1.85;1.63;;;7.40;73.10;;;;;;4820890;29;20268;-36
2021/04/12 07:45:33;;;;;;;3.10;1.88;;;7.40;74.20;;;;;;4886132;29;20231;-39
2021/04/12 07:48:49;;;;;;;2.75;1.80;;;7.40;74.10;;;;;;4868298;29;20271;-40
2021/04/12 07:51:48;;;;;;;1.48;1.38;;;7.30;75.60;;;;;;4899185;29;20772;-39
2021/04/12 07:54:56;;;;;;;2.55;1.40;;;7.20;76.90;;;;;;4955734;28;20201;-40
2021/04/12 07:58:01;;;;;;;2.10;1.90;;;7.20;75.90;;;;;;4986425;28;20199;-40
2021/04/12 08:01:15;;;;;;;1.90;1.80;;;7.20;76.00;;;;;;5017122;28;20262;-40
2021/04/12 08:04:17;;;;;;;1.88;1.77;;;7.10;77.20;;;;;;5020441;28;20226;-39
2021/04/12 08:07:31;;;;;;;3.08;2.00;;;7.00;77.80;;;;;;5021906;28;20203;-36
2021/04/12 08:10:34;;;;;;;1.60;1.50;;;7.00;79.90;;;;;;5018079;28;20289;-41
2021/04/12 08:13:36;;;;;;;2.63;2.10;;;6.90;79.80;;;;;;5026287;28;20203;-40
2021/04/12 08:16:40;;;;;;;4.60;2.03;;;6.80;79.80;;;;;;5084691;28;20204;-38
2021/04/12 08:19:38;;;;;;;1.85;1.70;;;6.80;81.70;;;;;;5067109;28;20206;-40
2021/04/12 08:22:56;;;;;;;1.98;1.77;;;6.80;80.70;;;;;;5079826;28;20301;-38
2021/04/12 08:26:00;;;;;;;4.00;1.55;;;6.70;82.50;;;;;;5077362;28;20247;-39
2021/04/12 08:29:04;;;;;;;1.90;1.45;;;6.70;82.70;;;;;;5083556;28;20219;-40
2021/04/12 08:32:07;;;;;;;1.63;1.52;;;6.70;83.40;;;;;;5083915;28;20284;-39
2021/04/12 08:35:24;;;;;;;1.83;1.73;;;6.60;83.90;;;;;;5084273;28;20263;-37
2021/04/12 08:38:29;;;;;;;1.75;1.65;;;6.60;86.10;;;;;;5083795;28;20197;-40
2021/04/12 08:41:41;;;;;;;1.35;1.25;;;6.50;86.80;;;;;;5061657;28;20235;-38
2021/04/12 08:44:48;;;;;;;2.47;2.20;;;6.50;86.70;;;;;;5078407;28;20224;-40
2021/04/12 08:47:47;;;;;;;1.98;1.77;;;6.50;87.70;;;;;;5083956;28;20212;-38
2021/04/12 08:50:31;;;;;;;1.80;1.70;;;6.40;88.60;;;;;;5080969;28;21614;-38
2021/04/12 08:53:37;;;;;;;2.30;2.10;;;6.30;90.00;;;;;;5083700;28;20197;-36
2021/04/12 08:56:36;;;;;;;2.30;2.10;;;6.30;90.00;;;;;;5084272;28;20215;-38
2021/04/12 08:59:43;;;;;;;4.55;2.30;;;6.30;90.40;;;;;;5039084;28;20205;-33
2021/04/12 09:02:40;;;;;;;1.63;1.52;;;6.20;91.50;;;;;;5046917;28;20338;-37
2021/04/12 09:05:45;;;;;;;2.50;2.30;;;6.20;91.60;;;;;;5089301;28;20254;-40
2021/04/12 09:09:05;;;;;;;2.20;2.05;;;6.30;91.30;;;;;;5083400;28;20425;-40
2021/04/12 09:11:57;;;;;;;2.05;1.85;;;6.20;92.20;;;;;;5079390;28;20209;-38
2021/04/12 09:15:12;;;;;;;2.28;2.08;;;6.20;92.90;;;;;;5070843;28;20281;-40
2021/04/12 09:18:30;;;;;;;2.20;1.92;;;6.20;92.90;;;;;;5083471;28;20209;-38
2021/04/12 09:21:34;;;;;;;3.38;2.50;;;6.10;93.60;;;;;;5072684;28;20205;-36
2021/04/12 09:24:40;;;;;;;3.00;2.13;;;6.10;93.90;;;;;;5059071;28;20571;-36
2021/04/12 09:27:54;;;;;;;2.72;2.00;;;6.10;94.20;;;;;;5082516;28;20644;-39
2021/04/12 09:30:59;;;;;;;2.28;2.17;;;6.00;95.30;;;;;;5080582;28;20284;-38
2021/04/12 09:34:06;;;;;;;3.05;1.70;;;6.00;96.00;;;;;;5083495;28;20205;-38
2021/04/12 09:37:12;;;;;;;2.50;2.30;;;5.90;96.00;;;;;;5081774;28;20217;-38
2021/04/12 09:39:57;;;;;;;2.30;2.20;;;5.80;96.70;;;;;;5083065;28;20213;-38
2021/04/12 09:42:58;;;;;;;3.15;2.60;;;5.80;96.90;;;;;;5079051;28;20232;-38
2021/04/12 09:46:13;;;;;;;2.90;1.85;;;5.70;98.10;;;;;;5103757;28;20321;-38
2021/04/12 09:49:16;;;;;;;2.92;2.13;;;5.60;98.60;;;;;;5056617;28;20220;-36
2021/04/12 09:52:14;;;;;;;2.58;2.38;;;5.60;99.00;;;;;;5059710;28;20212;-40
2021/04/12 09:55:10;;;;;;;2.30;2.10;;;5.70;99.00;;;;;;5049610;28;20293;-38
2021/04/12 09:58:04;;;;;;;2.80;2.60;;;5.70;99.00;;;;;;5059800;28;20251;-39
2021/04/12 10:01:12;;;;;;;2.15;2.05;;;5.70;99.10;;;;;;5045992;28;20385;-39
2021/04/12 10:04:27;;;;;;;2.83;2.22;;;5.70;99.40;;;;;;5060207;28;20225;-39
2021/04/12 10:07:26;;;;;;;2.55;2.35;;;5.60;99.60;;;;;;5052629;28;20282;-40
2021/04/12 10:10:09;;;;;;;2.60;2.40;;;5.60;99.90;;;;;;5053813;28;20260;-39
2021/04/12 10:12:52;;;;;;;2.50;2.25;;;5.60;99.90;;;;;;5056625;28;20671;-40
2021/04/12 10:15:42;;;;;;;3.22;2.22;;;5.70;99.90;;;;;;5060202;28;20229;-39
2021/04/12 10:18:24;;;;;;;4.00;2.00;;;5.60;99.90;;;;;;5058673;28;20569;-38
2021/04/12 10:21:02;;;;;;;3.35;2.65;;;5.60;99.90;;;;;;5048609;28;20214;-38
2021/04/12 10:23:35;;;;;;;3.10;2.78;;;5.60;99.90;;;;;;5118052;28;20234;-40
2021/04/12 10:26:10;;;;;;;2.58;2.38;;;5.50;99.90;;;;;;5123645;28;20195;-38
2021/04/12 10:28:48;;;;;;;2.45;2.25;;;5.50;99.90;;;;;;5122233;28;20207;-37
2021/04/12 10:31:27;;;;;;;3.20;2.90;;;5.40;99.90;;;;;;5122977;28;20226;-37
2021/04/12 10:34:11;;;;;;;3.65;2.90;;;5.40;99.90;;;;;;5122997;28;20275;-38
2021/04/12 10:36:55;;;;;;;2.30;2.10;;;5.40;99.90;;;;;;5122011;28;20203;-36
2021/04/12 10:39:35;;;;;;;2.45;2.08;;;5.40;99.90;;;;;;5123146;28;20207;-37
2021/04/12 10:42:18;;;;;;;2.90;2.28;;;5.40;99.90;;;;;;5122067;28;20192;-39
2021/04/12 10:44:59;;;;;;;3.28;2.80;;;5.40;99.90;;;;;;5123154;28;20235;-37
2021/04/12 10:47:36;;;;;;;2.50;2.30;;;5.30;99.90;;;;;;5122840;28;20200;-38
2021/04/12 10:50:12;;;;;;;2.72;2.53;;;5.20;99.90;;;;;;5122874;28;20272;-39
2021/04/12 10:53:06;;;;;;;2.80;2.60;;;5.20;99.90;;;;;;5122450;28;20215;-39
2021/04/12 10:55:39;;;;;;;2.10;2.00;;;5.10;99.90;;;;;;5122283;28;20208;-39
2021/04/12 10:58:24;;;;;;;2.85;2.60;;;5.00;99.90;;;;;;5120261;28;20218;-39
2021/04/12 11:01:05;;;;;;;2.20;2.10;;;4.90;99.90;;;;;;5122663;28;20263;-39
2021/04/12 11:03:47;;;;;;;2.97;2.35;;;4.70;99.90;;;;;;5122646;28;20223;-36
2021/04/12 11:06:35;;;;;;;2.92;2.72;;;4.60;99.90;;;;;;5122173;28;20196;-37
2021/04/12 11:09:32;;;;;;;2.70;2.50;;;4.70;99.90;;;;;;5123100;28;20249;-37
2021/04/12 11:12:15;;;;;;;3.28;2.50;;;4.70;99.90;;;;;;5117550;28;20200;-39
2021/04/12 11:14:53;;;;;;;2.90;2.50;;;4.70;99.90;;;;;;5117383;28;20287;-37
2021/04/12 11:17:36;;;;;;;2.75;2.55;;;4.60;99.90;;;;;;5122494;28;20218;-35
2021/04/12 11:20:13;;;;;;;3.25;2.65;;;4.40;99.90;;;;;;5122326;28;20229;-38
2021/04/12 11:22:56;;;;;;;2.95;2.75;;;4.30;99.90;;;;;;5125054;28;20284;-37
2021/04/12 11:25:41;;;;;;;3.05;2.85;;;4.20;99.90;;;;;;5126811;28;20199;-36
2021/04/12 11:28:39;;;;;;;4.25;2.90;;;4.10;99.90;;;;;;5124797;28;20230;-37
2021/04/12 11:31:34;;;;;;;6.03;2.28;;;4.20;99.90;;;;;;5126208;28;20207;-37
2021/04/12 11:34:27;;;;;;;2.55;2.35;;;4.20;99.90;;;;;;5116822;28;20208;-38
2021/04/12 11:37:16;;;;;;;2.20;2.08;;;4.10;99.90;;;;;;5126103;28;20272;-38
2021/04/12 11:39:55;;;;;;;7.35;2.38;;;4.00;99.90;;;;;;5126046;28;20261;-38
2021/04/12 11:42:31;;;;;;;5.88;2.38;;;3.90;99.90;;;;;;5109428;28;20196;-39
2021/04/12 11:45:09;;;;;;;3.53;2.15;;;3.80;99.90;;;;;;5125343;28;20300;-38
2021/04/12 11:48:04;;;;;;;4.68;2.28;;;3.80;99.90;;;;;;5125655;28;20247;-37
2021/04/12 11:50:39;;;;;;;3.78;2.05;;;3.80;99.90;;;;;;5124083;28;20235;-38
2021/04/12 11:53:25;;;;;;;2.25;2.05;;;3.90;99.90;;;;;;5125529;28;20271;-36
2021/04/12 11:56:00;;;;;;;2.70;2.40;;;3.80;99.90;;;;;;5126363;28;20208;-38
2021/04/12 11:58:39;;;;;;;3.70;2.13;;;3.70;99.90;;;;;;5122957;28;20214;-38
2021/04/12 12:01:19;;;;;;;2.15;1.90;;;3.70;99.90;;;;;;5123117;28;20229;-36
2021/04/12 12:04:03;;;;;;;2.72;2.53;;;3.70;99.90;;;;;;5125918;28;20230;-36
2021/04/12 12:06:50;;;;;;;2.40;2.15;;;3.70;99.90;;;;;;5122584;28;20202;-37
2021/04/12 12:09:40;;;;;;;2.70;2.33;;;3.60;99.90;;;;;;5125949;28;20211;-39
2021/04/12 12:12:29;;;;;;;3.28;2.92;;;3.50;99.90;;;;;;5124503;28;20232;-37
2021/04/12 12:15:11;;;;;;;2.40;2.20;;;3.50;99.90;;;;;;5114977;28;20691;-38
2021/04/12 12:17:45;;;;;;;3.28;2.47;;;3.50;99.90;;;;;;5119979;28;20212;-40
2021/04/12 12:20:21;;;;;;;2.72;2.40;;;3.40;99.90;;;;;;5125452;28;20205;-39
2021/04/12 12:22:58;;;;;;;2.60;2.40;;;3.50;99.90;;;;;;5112958;28;20227;-37
2021/04/12 12:25:42;;;;;;;3.25;2.53;;;3.50;99.90;;;;;;5125548;28;20199;-37
2021/04/12 12:28:24;;;;;;;4.28;2.55;;;3.50;99.90;;;;;;5124759;28;20218;-39
2021/04/12 12:31:03;;;;;;;2.35;2.03;;;3.40;99.90;;;;;;5125419;28;20262;-37
2021/04/12 12:33:41;;;;;;;2.80;2.60;;;3.40;99.90;;;;;;5118114;28;20226;-36
2021/04/12 12:36:18;;;;;;;3.92;2.38;;;3.40;99.90;;;;;;5125391;28;20712;-39
2021/04/12 12:39:10;;;;;;;2.70;2.50;;;3.50;99.90;;;;;;5125685;28;20225;-40
2021/04/12 12:41:48;;;;;;;4.00;2.67;;;3.60;99.90;;;;;;5124398;28;20226;-37
2021/04/12 12:44:22;;;;;;;2.30;2.10;;;3.40;99.90;;;;;;5124928;28;20227;-38
2021/04/12 12:46:54;;;;;;;4.45;2.50;;;3.50;99.90;;;;;;5124554;28;20214;-38
2021/04/12 12:49:29;;;;;;;3.67;2.53;;;3.50;99.90;;;;;;5125668;28;20273;-36
2021/04/12 12:52:03;;;;;;;2.55;2.35;;;3.50;99.90;;;;;;5124164;28;20205;-38
2021/04/12 12:54:40;;;;;;;2.78;2.53;;;3.40;99.90;;;;;;5125321;28;20256;-37
2021/04/12 12:57:20;;;;;;;3.55;3.28;;;3.40;99.90;;;;;;5124102;28;20218;-40
2021/04/12 12:59:55;;;;;;;3.05;2.65;;;3.40;99.90;;;;;;5125170;28;20203;-36
2021/04/12 13:02:36;;;;;;;3.00;2.70;;;3.50;99.90;;;;;;5123132;28;20204;-37
2021/04/12 13:05:10;;;;;;;3.35;3.05;;;3.60;99.90;;;;;;5125233;28;20196;-39
2021/04/12 13:07:43;;;;;;;2.92;2.72;;;3.70;99.90;;;;;;5124615;28;20206;-38
2021/04/12 13:10:19;;;;;;;3.83;2.60;;;3.80;99.90;;;;;;5124729;28;20200;-38
2021/04/12 13:12:52;;;;;;;2.85;2.65;;;3.80;99.90;;;;;;5123084;28;20543;-39
2021/04/12 13:15:32;;;;;;;3.10;2.80;;;3.80;99.90;;;;;;5124553;28;20204;-37
2021/04/12 13:18:11;;;;;;;6.00;3.78;;;3.80;99.90;;;;;;5121724;28;20208;-40
2021/04/12 13:20:45;;;;;;;3.33;2.50;;;3.80;99.90;;;;;;5124498;28;20210;-38
2021/04/12 13:23:20;;;;;;;2.80;2.60;;;3.90;99.90;;;;;;5124674;28;20217;-39
2021/04/12 13:25:52;;;;;;;3.72;2.55;;;3.90;99.90;;;;;;5124479;28;20199;-36
2021/04/12 13:28:31;;;;;;;2.72;2.50;;;3.90;99.90;;;;;;5110273;28;20200;-40
2021/04/12 13:31:04;;;;;;;4.05;2.78;;;3.90;99.90;;;;;;5124560;28;20200;-39
2021/04/12 13:33:40;;;;;;;3.05;2.75;;;3.90;99.90;;;;;;5123937;28;20286;-39
2021/04/12 13:36:16;;;;;;;2.88;2.67;;;3.90;99.90;;;;;;5123230;28;20324;-39
2021/04/12 13:38:49;;;;;;;2.88;2.63;;;3.80;99.90;;;;;;5124499;28;20211;-38
2021/04/12 13:41:24;;;;;;;2.65;2.45;;;3.90;99.90;;;;;;5123285;28;20241;-39
2021/04/12 13:43:58;;;;;;;3.17;2.80;;;3.80;99.90;;;;;;5123767;28;20276;-39
2021/04/12 13:46:32;;;;;;;2.78;2.55;;;3.90;99.90;;;;;;5112671;28;20231;-38
2021/04/12 13:49:08;;;;;;;3.42;3.13;;;3.90;99.90;;;;;;5124100;28;20207;-39
2021/04/12 13:51:40;;;;;;;2.53;2.33;;;3.90;99.90;;;;;;5123623;28;20666;-37
2021/04/12 13:54:19;;;;;;;2.90;2.70;;;3.90;99.90;;;;;;5123323;28;20203;-40
2021/04/12 13:56:53;;;;;;;3.60;3.30;;;4.10;99.90;;;;;;5123393;28;20203;-39
2021/04/12 13:59:28;;;;;;;3.78;3.47;;;4.20;99.90;;;;;;5124277;28;20200;-39
2021/04/12 14:02:28;;;;;;;4.75;3.25;;;4.30;99.90;;;;;;5122226;28;20211;-39
2021/04/12 14:05:00;;;;;;;3.33;3.03;;;4.40;99.90;;;;;;5112491;28;20273;-38
2021/04/12 14:07:43;;;;;;;10.65;3.75;;;4.60;99.90;;;;;;5123443;28;20204;-34
2021/04/12 14:10:23;;;;;;;4.22;3.50;;;4.70;99.90;;;;;;5123801;28;20200;-37
2021/04/12 14:12:59;;;;;;;5.53;3.53;;;4.80;99.90;;;;;;5122198;28;20199;-37
2021/04/12 14:15:48;;;;;;;3.22;2.92;;;5.00;99.90;;;;;;5123269;28;20244;-39
2021/04/12 14:18:31;;;;;;;3.72;3.42;;;5.20;99.90;;;;;;5122559;28;20897;-38
2021/04/12 14:21:12;;;;;;;4.00;3.13;;;5.20;99.90;;;;;;5124322;28;20259;-40
2021/04/12 14:23:51;;;;;;;3.80;3.40;;;5.40;99.90;;;;;;5123230;28;20627;-37
2021/04/12 14:26:29;;;;;;;5.88;3.03;;;5.60;99.90;;;;;;5121517;28;20203;-35
2021/04/12 14:29:04;;;;;;;3.78;3.40;;;5.70;99.90;;;;;;5122325;28;20212;-36
2021/04/12 14:31:36;;;;;;;4.05;2.95;;;5.60;99.90;;;;;;5119942;28;20195;-38
2021/04/12 14:34:10;;;;;;;4.25;3.50;;;5.70;99.90;;;;;;5122777;28;20272;-38
2021/04/12 14:36:43;;;;;;;3.88;2.95;;;5.80;99.90;;;;;;5122441;28;20203;-34
2021/04/12 14:39:21;;;;;;;6.03;3.25;;;5.90;99.90;;;;;;5122704;28;20192;-39
2021/04/12 14:41:56;;;;;;;3.53;3.22;;;6.00;99.90;;;;;;5110039;28;20192;-40
2021/04/12 14:44:35;;;;;;;4.20;3.80;;;6.20;99.90;;;;;;5123111;28;20227;-38
2021/04/12 14:47:18;;;;;;;3.33;3.10;;;6.70;99.90;;;;;;5119472;28;20223;-37
2021/04/12 14:49:52;;;;;;;4.20;3.80;;;7.00;99.90;;;;;;5122408;28;20607;-38
2021/04/12 14:52:42;;;;;;;3.60;3.25;;;7.30;99.90;;;;;;5121375;28;20208;-39
2021/04/12 14:55:24;;;;;;;4.72;3.72;;;7.70;99.90;;;;;;5116844;28;20299;-40
2021/04/12 14:58:07;;;;;;;4.85;4.20;;;7.60;99.90;;;;;;5120450;28;20259;-40
2021/04/12 15:00:41;;;;;;;5.07;3.55;;;7.70;99.90;;;;;;5119042;28;20196;-40
2021/04/12 15:03:18;;;;;;;3.80;3.30;;;7.80;99.90;;;;;;5119330;28;22103;-40
2021/04/12 15:05:55;;;;;;;4.05;3.20;;;7.70;99.90;;;;;;5117614;28;20296;-39